sensor_id;sensor_type;location;lat;lon;timestamp;P1;durP1;ratioP1;P2;durP2;ratioP2
45618;SDS011;31343;47.520;19.144;2022-12-29T00:01:49;18.45;;;9.32;;
45618;SDS011;31343;47.520;19.144;2022-12-29T00:04:14;19.23;;;10.07;;
45618;SDS011;31343;47.520;19.144;2022-12-29T00:06:41;20.05;;;10.80;;
45618;SDS011;31343;47.520;19.144;2022-12-29T00:09:07;14.77;;;9.68;;
45618;SDS011;31343;47.520;19.144;2022-12-29T00:11:33;18.27;;;10.25;;
45618;SDS011;31343;47.520;19.144;2022-12-29T00:13:58;19.77;;;9.57;;
45618;SDS011;31343;47.520;19.144;2022-12-29T00:16:43;15.52;;;8.88;;
45618;SDS011;31343;47.520;19.144;2022-12-29T00:19:10;19.00;;;9.93;;
45618;SDS011;31343;47.520;19.144;2022-12-29T00:21:56;22.02;;;10.27;;
45618;SDS011;31343;47.520;19.144;2022-12-29T00:24:40;21.33;;;9.00;;
45618;SDS011;31343;47.520;19.144;2022-12-29T00:27:25;17.27;;;9.73;;
45618;SDS011;31343;47.520;19.144;2022-12-29T00:30:30;17.58;;;9.57;;
45618;SDS011;31343;47.520;19.144;2022-12-29T00:33:16;17.88;;;9.25;;
45618;SDS011;31343;47.520;19.144;2022-12-29T00:36:05;20.98;;;9.93;;
45618;SDS011;31343;47.520;19.144;2022-12-29T00:38:35;20.05;;;9.13;;
45618;SDS011;31343;47.520;19.144;2022-12-29T00:41:22;18.77;;;9.48;;
45618;SDS011;31343;47.520;19.144;2022-12-29T00:44:07;15.10;;;9.00;;
45618;SDS011;31343;47.520;19.144;2022-12-29T00:46:36;15.80;;;9.38;;
45618;SDS011;31343;47.520;19.144;2022-12-29T00:49:03;18.88;;;9.95;;
45618;SDS011;31343;47.520;19.144;2022-12-29T00:51:48;15.15;;;8.65;;
45618;SDS011;31343;47.520;19.144;2022-12-29T00:54:15;16.25;;;9.68;;
45618;SDS011;31343;47.520;19.144;2022-12-29T00:56:41;18.08;;;9.60;;
45618;SDS011;31343;47.520;19.144;2022-12-29T00:59:08;16.73;;;10.35;;
45618;SDS011;31343;47.520;19.144;2022-12-29T01:01:35;21.00;;;10.90;;
45618;SDS011;31343;47.520;19.144;2022-12-29T01:04:02;20.65;;;10.27;;
45618;SDS011;31343;47.520;19.144;2022-12-29T01:06:29;15.00;;;8.35;;
45618;SDS011;31343;47.520;19.144;2022-12-29T01:08:55;14.93;;;9.05;;
45618;SDS011;31343;47.520;19.144;2022-12-29T01:11:39;16.77;;;10.10;;
45618;SDS011;31343;47.520;19.144;2022-12-29T01:14:05;16.30;;;9.05;;
45618;SDS011;31343;47.520;19.144;2022-12-29T01:16:31;19.38;;;9.55;;
45618;SDS011;31343;47.520;19.144;2022-12-29T01:18:58;18.45;;;10.25;;
45618;SDS011;31343;47.520;19.144;2022-12-29T01:21:24;16.90;;;9.35;;
45618;SDS011;31343;47.520;19.144;2022-12-29T01:23:50;20.27;;;9.57;;
45618;SDS011;31343;47.520;19.144;2022-12-29T01:26:16;16.02;;;9.95;;
45618;SDS011;31343;47.520;19.144;2022-12-29T01:28:43;18.48;;;10.52;;
45618;SDS011;31343;47.520;19.144;2022-12-29T01:31:09;17.52;;;11.02;;
45618;SDS011;31343;47.520;19.144;2022-12-29T01:33:36;14.07;;;9.10;;
45618;SDS011;31343;47.520;19.144;2022-12-29T01:36:03;16.10;;;8.55;;
45618;SDS011;31343;47.520;19.144;2022-12-29T01:38:30;15.90;;;10.38;;
45618;SDS011;31343;47.520;19.144;2022-12-29T01:40:57;20.83;;;10.73;;
45618;SDS011;31343;47.520;19.144;2022-12-29T01:43:38;18.77;;;9.98;;
45618;SDS011;31343;47.520;19.144;2022-12-29T01:46:15;23.98;;;10.30;;
45618;SDS011;31343;47.520;19.144;2022-12-29T01:48:54;19.63;;;10.82;;
45618;SDS011;31343;47.520;19.144;2022-12-29T01:51:27;17.38;;;9.35;;
45618;SDS011;31343;47.520;19.144;2022-12-29T01:53:56;21.00;;;9.18;;
45618;SDS011;31343;47.520;19.144;2022-12-29T01:56:24;17.38;;;10.07;;
45618;SDS011;31343;47.520;19.144;2022-12-29T01:58:53;20.08;;;10.57;;
45618;SDS011;31343;47.520;19.144;2022-12-29T02:01:23;18.73;;;10.50;;
45618;SDS011;31343;47.520;19.144;2022-12-29T02:03:48;20.40;;;10.27;;
45618;SDS011;31343;47.520;19.144;2022-12-29T02:06:17;18.35;;;10.30;;
45618;SDS011;31343;47.520;19.144;2022-12-29T02:09:05;19.45;;;9.77;;
45618;SDS011;31343;47.520;19.144;2022-12-29T02:11:31;17.90;;;9.77;;
45618;SDS011;31343;47.520;19.144;2022-12-29T02:13:57;18.63;;;9.98;;
45618;SDS011;31343;47.520;19.144;2022-12-29T02:36:29;29.20;;;15.85;;
45618;SDS011;31343;47.520;19.144;2022-12-29T02:39:38;22.85;;;11.90;;
45618;SDS011;31343;47.520;19.144;2022-12-29T02:42:50;20.08;;;10.50;;
45618;SDS011;31343;47.520;19.144;2022-12-29T02:50:45;18.52;;;10.88;;
45618;SDS011;31343;47.520;19.144;2022-12-29T02:53:30;18.98;;;10.52;;
45618;SDS011;31343;47.520;19.144;2022-12-29T02:56:16;23.75;;;11.48;;
45618;SDS011;31343;47.520;19.144;2022-12-29T02:58:42;22.08;;;11.93;;
45618;SDS011;31343;47.520;19.144;2022-12-29T03:01:13;18.02;;;11.48;;
45618;SDS011;31343;47.520;19.144;2022-12-29T03:06:30;23.77;;;11.32;;
45618;SDS011;31343;47.520;19.144;2022-12-29T03:09:47;19.95;;;10.10;;
45618;SDS011;31343;47.520;19.144;2022-12-29T03:11:53;20.92;;;12.00;;
45618;SDS011;31343;47.520;19.144;2022-12-29T03:14:37;21.48;;;10.95;;
45618;SDS011;31343;47.520;19.144;2022-12-29T03:20:37;21.05;;;12.05;;
45618;SDS011;31343;47.520;19.144;2022-12-29T03:23:17;19.88;;;11.13;;
45618;SDS011;31343;47.520;19.144;2022-12-29T03:25:49;19.25;;;11.00;;
45618;SDS011;31343;47.520;19.144;2022-12-29T03:28:27;21.75;;;11.90;;
45618;SDS011;31343;47.520;19.144;2022-12-29T03:31:00;18.17;;;10.50;;
45618;SDS011;31343;47.520;19.144;2022-12-29T03:33:29;17.83;;;10.77;;
45618;SDS011;31343;47.520;19.144;2022-12-29T03:36:00;20.33;;;10.63;;
45618;SDS011;31343;47.520;19.144;2022-12-29T03:38:53;18.92;;;10.35;;
45618;SDS011;31343;47.520;19.144;2022-12-29T03:41:26;13.35;;;9.25;;
45618;SDS011;31343;47.520;19.144;2022-12-29T03:43:55;18.55;;;9.55;;
45618;SDS011;31343;47.520;19.144;2022-12-29T03:46:21;16.80;;;10.07;;
45618;SDS011;31343;47.520;19.144;2022-12-29T03:48:47;20.70;;;10.65;;
45618;SDS011;31343;47.520;19.144;2022-12-29T03:51:13;17.60;;;10.13;;
45618;SDS011;31343;47.520;19.144;2022-12-29T03:53:38;20.10;;;11.32;;
45618;SDS011;31343;47.520;19.144;2022-12-29T03:56:04;17.95;;;13.02;;
45618;SDS011;31343;47.520;19.144;2022-12-29T03:58:30;15.43;;;9.50;;
45618;SDS011;31343;47.520;19.144;2022-12-29T04:00:56;20.50;;;11.00;;
45618;SDS011;31343;47.520;19.144;2022-12-29T04:03:22;16.02;;;9.40;;
45618;SDS011;31343;47.520;19.144;2022-12-29T04:05:48;21.10;;;10.18;;
45618;SDS011;31343;47.520;19.144;2022-12-29T04:08:14;16.70;;;9.20;;
45618;SDS011;31343;47.520;19.144;2022-12-29T04:10:39;16.60;;;9.88;;
45618;SDS011;31343;47.520;19.144;2022-12-29T04:13:05;14.95;;;8.43;;
45618;SDS011;31343;47.520;19.144;2022-12-29T04:15:31;17.08;;;10.23;;
45618;SDS011;31343;47.520;19.144;2022-12-29T04:17:57;19.08;;;9.88;;
45618;SDS011;31343;47.520;19.144;2022-12-29T04:20:22;19.05;;;10.93;;
45618;SDS011;31343;47.520;19.144;2022-12-29T04:23:07;16.60;;;10.33;;
45618;SDS011;31343;47.520;19.144;2022-12-29T04:25:33;21.58;;;10.85;;
45618;SDS011;31343;47.520;19.144;2022-12-29T04:27:59;19.95;;;10.43;;
45618;SDS011;31343;47.520;19.144;2022-12-29T04:30:25;18.60;;;10.65;;
45618;SDS011;31343;47.520;19.144;2022-12-29T04:32:51;21.27;;;11.20;;
45618;SDS011;31343;47.520;19.144;2022-12-29T04:35:17;17.67;;;10.90;;
45618;SDS011;31343;47.520;19.144;2022-12-29T04:37:42;20.13;;;11.15;;
45618;SDS011;31343;47.520;19.144;2022-12-29T04:40:08;23.05;;;10.73;;
45618;SDS011;31343;47.520;19.144;2022-12-29T04:42:35;17.48;;;11.23;;
45618;SDS011;31343;47.520;19.144;2022-12-29T04:45:00;21.13;;;11.57;;
45618;SDS011;31343;47.520;19.144;2022-12-29T04:47:26;16.83;;;11.27;;
45618;SDS011;31343;47.520;19.144;2022-12-29T04:49:52;18.08;;;10.63;;
45618;SDS011;31343;47.520;19.144;2022-12-29T04:52:17;20.13;;;11.85;;
45618;SDS011;31343;47.520;19.144;2022-12-29T04:54:43;21.10;;;11.07;;
45618;SDS011;31343;47.520;19.144;2022-12-29T04:57:10;17.83;;;9.95;;
45618;SDS011;31343;47.520;19.144;2022-12-29T04:59:36;24.20;;;11.80;;
45618;SDS011;31343;47.520;19.144;2022-12-29T05:02:02;20.88;;;10.77;;
45618;SDS011;31343;47.520;19.144;2022-12-29T05:04:27;18.58;;;11.63;;
45618;SDS011;31343;47.520;19.144;2022-12-29T05:06:54;18.20;;;11.27;;
45618;SDS011;31343;47.520;19.144;2022-12-29T05:09:20;20.05;;;11.60;;
45618;SDS011;31343;47.520;19.144;2022-12-29T05:11:45;20.98;;;11.63;;
45618;SDS011;31343;47.520;19.144;2022-12-29T05:14:11;20.92;;;11.25;;
45618;SDS011;31343;47.520;19.144;2022-12-29T05:16:37;17.27;;;11.80;;
45618;SDS011;31343;47.520;19.144;2022-12-29T05:19:03;17.23;;;10.77;;
45618;SDS011;31343;47.520;19.144;2022-12-29T05:21:28;18.90;;;10.77;;
45618;SDS011;31343;47.520;19.144;2022-12-29T05:23:54;20.27;;;10.88;;
45618;SDS011;31343;47.520;19.144;2022-12-29T05:26:20;20.45;;;10.95;;
45618;SDS011;31343;47.520;19.144;2022-12-29T05:28:46;18.40;;;11.30;;
45618;SDS011;31343;47.520;19.144;2022-12-29T05:31:11;16.52;;;10.95;;
45618;SDS011;31343;47.520;19.144;2022-12-29T05:33:37;20.58;;;11.27;;
45618;SDS011;31343;47.520;19.144;2022-12-29T05:36:06;21.77;;;12.48;;
45618;SDS011;31343;47.520;19.144;2022-12-29T05:38:33;23.70;;;12.30;;
45618;SDS011;31343;47.520;19.144;2022-12-29T05:41:00;19.10;;;10.77;;
45618;SDS011;31343;47.520;19.144;2022-12-29T05:43:26;22.50;;;11.05;;
45618;SDS011;31343;47.520;19.144;2022-12-29T05:45:52;21.25;;;10.80;;
45618;SDS011;31343;47.520;19.144;2022-12-29T05:48:18;20.37;;;10.93;;
45618;SDS011;31343;47.520;19.144;2022-12-29T05:50:47;21.15;;;10.27;;
45618;SDS011;31343;47.520;19.144;2022-12-29T05:53:13;21.67;;;10.80;;
45618;SDS011;31343;47.520;19.144;2022-12-29T05:55:39;21.48;;;10.93;;
45618;SDS011;31343;47.520;19.144;2022-12-29T05:58:05;24.67;;;12.90;;
45618;SDS011;31343;47.520;19.144;2022-12-29T06:00:31;18.95;;;11.45;;
45618;SDS011;31343;47.520;19.144;2022-12-29T06:02:57;16.63;;;10.45;;
45618;SDS011;31343;47.520;19.144;2022-12-29T06:05:22;19.77;;;11.82;;
45618;SDS011;31343;47.520;19.144;2022-12-29T06:07:48;20.05;;;10.85;;
45618;SDS011;31343;47.520;19.144;2022-12-29T06:10:14;20.50;;;11.52;;
45618;SDS011;31343;47.520;19.144;2022-12-29T06:12:40;22.40;;;12.43;;
45618;SDS011;31343;47.520;19.144;2022-12-29T06:15:05;20.80;;;12.52;;
45618;SDS011;31343;47.520;19.144;2022-12-29T06:17:31;21.58;;;12.75;;
45618;SDS011;31343;47.520;19.144;2022-12-29T06:19:59;21.50;;;11.88;;
45618;SDS011;31343;47.520;19.144;2022-12-29T06:22:25;22.40;;;11.00;;
45618;SDS011;31343;47.520;19.144;2022-12-29T06:24:51;17.83;;;10.43;;
45618;SDS011;31343;47.520;19.144;2022-12-29T06:27:16;17.10;;;11.18;;
45618;SDS011;31343;47.520;19.144;2022-12-29T06:29:42;20.52;;;11.38;;
45618;SDS011;31343;47.520;19.144;2022-12-29T06:32:08;24.65;;;13.25;;
45618;SDS011;31343;47.520;19.144;2022-12-29T06:34:41;20.17;;;10.80;;
45618;SDS011;31343;47.520;19.144;2022-12-29T06:37:08;19.58;;;11.00;;
45618;SDS011;31343;47.520;19.144;2022-12-29T06:39:34;21.15;;;12.40;;
45618;SDS011;31343;47.520;19.144;2022-12-29T06:42:00;21.80;;;11.63;;
45618;SDS011;31343;47.520;19.144;2022-12-29T06:44:26;23.73;;;12.43;;
45618;SDS011;31343;47.520;19.144;2022-12-29T06:46:52;20.15;;;12.35;;
45618;SDS011;31343;47.520;19.144;2022-12-29T06:49:18;21.88;;;12.77;;
45618;SDS011;31343;47.520;19.144;2022-12-29T06:51:43;20.65;;;12.32;;
45618;SDS011;31343;47.520;19.144;2022-12-29T06:54:09;24.52;;;12.52;;
45618;SDS011;31343;47.520;19.144;2022-12-29T06:56:35;22.75;;;12.25;;
45618;SDS011;31343;47.520;19.144;2022-12-29T06:59:01;25.27;;;12.05;;
45618;SDS011;31343;47.520;19.144;2022-12-29T07:01:27;21.73;;;12.23;;
45618;SDS011;31343;47.520;19.144;2022-12-29T07:03:53;19.38;;;12.02;;
45618;SDS011;31343;47.520;19.144;2022-12-29T07:06:18;20.05;;;12.27;;
45618;SDS011;31343;47.520;19.144;2022-12-29T07:08:44;22.80;;;13.20;;
45618;SDS011;31343;47.520;19.144;2022-12-29T07:11:10;19.88;;;13.75;;
45618;SDS011;31343;47.520;19.144;2022-12-29T07:13:36;23.73;;;13.07;;
45618;SDS011;31343;47.520;19.144;2022-12-29T07:16:05;24.88;;;13.05;;
45618;SDS011;31343;47.520;19.144;2022-12-29T07:18:35;22.75;;;14.60;;
45618;SDS011;31343;47.520;19.144;2022-12-29T07:21:01;25.90;;;13.95;;
45618;SDS011;31343;47.520;19.144;2022-12-29T07:23:27;26.50;;;14.32;;
45618;SDS011;31343;47.520;19.144;2022-12-29T07:26:00;23.27;;;13.85;;
45618;SDS011;31343;47.520;19.144;2022-12-29T07:28:26;26.38;;;14.10;;
45618;SDS011;31343;47.520;19.144;2022-12-29T07:30:52;23.67;;;14.52;;
45618;SDS011;31343;47.520;19.144;2022-12-29T07:33:18;25.05;;;13.30;;
45618;SDS011;31343;47.520;19.144;2022-12-29T07:35:43;25.20;;;14.98;;
45618;SDS011;31343;47.520;19.144;2022-12-29T07:38:09;26.27;;;13.85;;
45618;SDS011;31343;47.520;19.144;2022-12-29T07:40:35;28.08;;;13.95;;
45618;SDS011;31343;47.520;19.144;2022-12-29T07:43:01;23.02;;;13.35;;
45618;SDS011;31343;47.520;19.144;2022-12-29T07:45:26;23.55;;;13.80;;
45618;SDS011;31343;47.520;19.144;2022-12-29T07:47:52;26.63;;;15.88;;
45618;SDS011;31343;47.520;19.144;2022-12-29T07:50:18;25.42;;;13.40;;
45618;SDS011;31343;47.520;19.144;2022-12-29T07:52:43;24.52;;;14.68;;
45618;SDS011;31343;47.520;19.144;2022-12-29T07:55:11;25.02;;;14.45;;
45618;SDS011;31343;47.520;19.144;2022-12-29T07:57:36;26.60;;;14.43;;
45618;SDS011;31343;47.520;19.144;2022-12-29T08:00:02;23.55;;;14.40;;
45618;SDS011;31343;47.520;19.144;2022-12-29T08:02:29;23.65;;;14.85;;
45618;SDS011;31343;47.520;19.144;2022-12-29T08:04:56;25.27;;;15.18;;
45618;SDS011;31343;47.520;19.144;2022-12-29T08:07:21;24.30;;;14.57;;
45618;SDS011;31343;47.520;19.144;2022-12-29T08:09:47;26.73;;;14.18;;
45618;SDS011;31343;47.520;19.144;2022-12-29T08:12:13;26.95;;;15.02;;
45618;SDS011;31343;47.520;19.144;2022-12-29T08:14:38;30.88;;;15.70;;
45618;SDS011;31343;47.520;19.144;2022-12-29T08:17:05;26.17;;;14.77;;
45618;SDS011;31343;47.520;19.144;2022-12-29T08:19:31;26.70;;;14.32;;
45618;SDS011;31343;47.520;19.144;2022-12-29T08:21:57;23.38;;;13.55;;
45618;SDS011;31343;47.520;19.144;2022-12-29T08:24:22;26.13;;;14.40;;
45618;SDS011;31343;47.520;19.144;2022-12-29T08:26:48;21.50;;;15.02;;
45618;SDS011;31343;47.520;19.144;2022-12-29T08:29:14;25.63;;;14.50;;
45618;SDS011;31343;47.520;19.144;2022-12-29T08:31:40;27.27;;;15.05;;
45618;SDS011;31343;47.520;19.144;2022-12-29T08:34:05;26.42;;;14.15;;
45618;SDS011;31343;47.520;19.144;2022-12-29T08:36:31;27.92;;;15.02;;
45618;SDS011;31343;47.520;19.144;2022-12-29T08:38:57;31.02;;;15.73;;
45618;SDS011;31343;47.520;19.144;2022-12-29T08:41:23;26.25;;;15.63;;
45618;SDS011;31343;47.520;19.144;2022-12-29T08:43:49;26.15;;;15.15;;
45618;SDS011;31343;47.520;19.144;2022-12-29T08:46:15;25.15;;;14.20;;
45618;SDS011;31343;47.520;19.144;2022-12-29T08:48:41;30.83;;;15.00;;
45618;SDS011;31343;47.520;19.144;2022-12-29T08:51:07;24.27;;;14.98;;
45618;SDS011;31343;47.520;19.144;2022-12-29T08:53:34;26.65;;;14.52;;
45618;SDS011;31343;47.520;19.144;2022-12-29T08:56:00;30.92;;;15.45;;
45618;SDS011;31343;47.520;19.144;2022-12-29T08:58:27;28.30;;;15.95;;
45618;SDS011;31343;47.520;19.144;2022-12-29T09:00:53;27.92;;;15.15;;
45618;SDS011;31343;47.520;19.144;2022-12-29T09:03:19;31.13;;;16.90;;
45618;SDS011;31343;47.520;19.144;2022-12-29T09:05:49;23.65;;;14.35;;
45618;SDS011;31343;47.520;19.144;2022-12-29T09:08:18;33.05;;;15.52;;
45618;SDS011;31343;47.520;19.144;2022-12-29T09:10:44;35.58;;;16.02;;
45618;SDS011;31343;47.520;19.144;2022-12-29T09:13:11;25.80;;;15.68;;
45618;SDS011;31343;47.520;19.144;2022-12-29T09:15:37;32.25;;;15.52;;
45618;SDS011;31343;47.520;19.144;2022-12-29T09:18:03;27.05;;;16.45;;
45618;SDS011;31343;47.520;19.144;2022-12-29T09:20:29;30.20;;;15.43;;
45618;SDS011;31343;47.520;19.144;2022-12-29T09:22:55;25.45;;;14.98;;
45618;SDS011;31343;47.520;19.144;2022-12-29T09:25:21;25.77;;;15.02;;
45618;SDS011;31343;47.520;19.144;2022-12-29T09:27:49;28.85;;;15.65;;
45618;SDS011;31343;47.520;19.144;2022-12-29T09:30:18;25.02;;;15.30;;
45618;SDS011;31343;47.520;19.144;2022-12-29T09:32:46;26.38;;;15.25;;
45618;SDS011;31343;47.520;19.144;2022-12-29T09:35:12;30.35;;;16.17;;
45618;SDS011;31343;47.520;19.144;2022-12-29T09:37:38;23.73;;;15.07;;
45618;SDS011;31343;47.520;19.144;2022-12-29T09:40:04;24.70;;;15.25;;
45618;SDS011;31343;47.520;19.144;2022-12-29T09:48:32;26.85;;;13.70;;
45618;SDS011;31343;47.520;19.144;2022-12-29T09:51:02;29.85;;;16.73;;
45618;SDS011;31343;47.520;19.144;2022-12-29T09:53:38;29.15;;;16.55;;
45618;SDS011;31343;47.520;19.144;2022-12-29T09:56:31;26.58;;;16.13;;
45618;SDS011;31343;47.520;19.144;2022-12-29T09:59:15;26.58;;;15.32;;
45618;SDS011;31343;47.520;19.144;2022-12-29T10:01:46;27.88;;;15.10;;
45618;SDS011;31343;47.520;19.144;2022-12-29T10:04:22;30.02;;;16.13;;
45618;SDS011;31343;47.520;19.144;2022-12-29T10:06:51;28.58;;;16.13;;
45618;SDS011;31343;47.520;19.144;2022-12-29T10:20:49;34.42;;;18.02;;
45618;SDS011;31343;47.520;19.144;2022-12-29T10:23:26;34.83;;;18.80;;
45618;SDS011;31343;47.520;19.144;2022-12-29T10:25:55;37.35;;;18.88;;
45618;SDS011;31343;47.520;19.144;2022-12-29T10:28:34;31.83;;;17.40;;
45618;SDS011;31343;47.520;19.144;2022-12-29T10:31:05;36.83;;;18.67;;
45618;SDS011;31343;47.520;19.144;2022-12-29T10:33:37;33.20;;;18.60;;
45618;SDS011;31343;47.520;19.144;2022-12-29T10:36:15;32.78;;;18.50;;
45618;SDS011;31343;47.520;19.144;2022-12-29T10:41:50;32.22;;;18.23;;
45618;SDS011;31343;47.520;19.144;2022-12-29T10:44:36;30.98;;;18.20;;
45618;SDS011;31343;47.520;19.144;2022-12-29T10:47:04;35.17;;;19.48;;
45618;SDS011;31343;47.520;19.144;2022-12-29T10:49:33;29.45;;;19.40;;
45618;SDS011;31343;47.520;19.144;2022-12-29T10:52:05;36.08;;;18.45;;
45618;SDS011;31343;47.520;19.144;2022-12-29T10:54:33;32.45;;;19.00;;
45618;SDS011;31343;47.520;19.144;2022-12-29T10:59:53;32.60;;;17.23;;
45618;SDS011;31343;47.520;19.144;2022-12-29T11:07:48;35.13;;;18.88;;
45618;SDS011;31343;47.520;19.144;2022-12-29T11:13:12;28.38;;;18.10;;
45618;SDS011;31343;47.520;19.144;2022-12-29T11:15:49;28.00;;;16.30;;
45618;SDS011;31343;47.520;19.144;2022-12-29T11:18:20;33.42;;;18.42;;
45618;SDS011;31343;47.520;19.144;2022-12-29T11:20:48;27.70;;;17.70;;
45618;SDS011;31343;47.520;19.144;2022-12-29T11:26:28;27.45;;;16.42;;
45618;SDS011;31343;47.520;19.144;2022-12-29T11:31:48;26.92;;;17.33;;
45618;SDS011;31343;47.520;19.144;2022-12-29T11:34:19;27.30;;;17.83;;
45618;SDS011;31343;47.520;19.144;2022-12-29T11:36:51;28.75;;;16.77;;
45618;SDS011;31343;47.520;19.144;2022-12-29T11:40:05;27.35;;;16.77;;
45618;SDS011;31343;47.520;19.144;2022-12-29T11:42:18;24.83;;;16.45;;
45618;SDS011;31343;47.520;19.144;2022-12-29T11:44:47;30.48;;;16.77;;
45618;SDS011;31343;47.520;19.144;2022-12-29T11:47:26;31.05;;;16.52;;
45618;SDS011;31343;47.520;19.144;2022-12-29T11:49:58;27.95;;;16.73;;
45618;SDS011;31343;47.520;19.144;2022-12-29T11:52:30;25.92;;;16.60;;
45618;SDS011;31343;47.520;19.144;2022-12-29T11:55:00;26.63;;;16.70;;
45618;SDS011;31343;47.520;19.144;2022-12-29T11:57:28;32.28;;;18.67;;
45618;SDS011;31343;47.520;19.144;2022-12-29T11:59:57;29.35;;;16.52;;
45618;SDS011;31343;47.520;19.144;2022-12-29T12:05:03;28.92;;;16.58;;
45618;SDS011;31343;47.520;19.144;2022-12-29T12:07:52;34.03;;;18.80;;
45618;SDS011;31343;47.520;19.144;2022-12-29T12:10:31;29.73;;;17.67;;
45618;SDS011;31343;47.520;19.144;2022-12-29T12:13:18;31.65;;;17.58;;
45618;SDS011;31343;47.520;19.144;2022-12-29T12:15:57;28.48;;;17.10;;
45618;SDS011;31343;47.520;19.144;2022-12-29T12:24:04;32.22;;;17.38;;
45618;SDS011;31343;47.520;19.144;2022-12-29T12:27:01;28.20;;;15.85;;
45618;SDS011;31343;47.520;19.144;2022-12-29T12:29:35;26.25;;;16.02;;
45618;SDS011;31343;47.520;19.144;2022-12-29T12:32:09;25.38;;;16.50;;
45618;SDS011;31343;47.520;19.144;2022-12-29T12:34:49;28.05;;;15.88;;
45618;SDS011;31343;47.520;19.144;2022-12-29T12:40:20;27.60;;;15.57;;
45618;SDS011;31343;47.520;19.144;2022-12-29T12:49:07;23.98;;;14.70;;
45618;SDS011;31343;47.520;19.144;2022-12-29T12:51:59;25.67;;;14.27;;
45618;SDS011;31343;47.520;19.144;2022-12-29T12:54:49;22.38;;;14.23;;
45618;SDS011;31343;47.520;19.144;2022-12-29T13:00:16;22.80;;;15.30;;
45618;SDS011;31343;47.520;19.144;2022-12-29T13:11:59;24.20;;;15.57;;
45618;SDS011;31343;47.520;19.144;2022-12-29T13:23:56;21.73;;;14.35;;
45618;SDS011;31343;47.520;19.144;2022-12-29T13:26:49;27.02;;;15.40;;
45618;SDS011;31343;47.520;19.144;2022-12-29T13:29:21;24.27;;;14.87;;
45618;SDS011;31343;47.520;19.144;2022-12-29T13:34:46;23.13;;;15.27;;
45618;SDS011;31343;47.520;19.144;2022-12-29T13:37:15;26.15;;;15.48;;
45618;SDS011;31343;47.520;19.144;2022-12-29T13:39:51;29.15;;;15.68;;
45618;SDS011;31343;47.520;19.144;2022-12-29T13:42:20;24.95;;;16.02;;
45618;SDS011;31343;47.520;19.144;2022-12-29T13:44:58;26.25;;;15.48;;
45618;SDS011;31343;47.520;19.144;2022-12-29T13:49:58;26.45;;;15.27;;
45618;SDS011;31343;47.520;19.144;2022-12-29T13:55:21;28.35;;;15.73;;
45618;SDS011;31343;47.520;19.144;2022-12-29T14:03:44;30.70;;;16.08;;
45618;SDS011;31343;47.520;19.144;2022-12-29T14:06:26;25.58;;;15.10;;
45618;SDS011;31343;47.520;19.144;2022-12-29T14:08:57;32.97;;;17.98;;
45618;SDS011;31343;47.520;19.144;2022-12-29T14:11:35;27.50;;;16.23;;
45618;SDS011;31343;47.520;19.144;2022-12-29T14:14:19;30.58;;;17.67;;
45618;SDS011;31343;47.520;19.144;2022-12-29T14:16:52;23.30;;;15.68;;
45618;SDS011;31343;47.520;19.144;2022-12-29T14:19:29;28.83;;;16.35;;
45618;SDS011;31343;47.520;19.144;2022-12-29T14:21:57;26.58;;;14.80;;
45618;SDS011;31343;47.520;19.144;2022-12-29T14:33:11;24.05;;;13.93;;
45618;SDS011;31343;47.520;19.144;2022-12-29T14:35:36;29.15;;;16.42;;
45618;SDS011;31343;47.520;19.144;2022-12-29T14:38:12;31.67;;;17.27;;
45618;SDS011;31343;47.520;19.144;2022-12-29T14:40:40;28.88;;;17.33;;
45618;SDS011;31343;47.520;19.144;2022-12-29T14:43:11;28.30;;;17.27;;
45618;SDS011;31343;47.520;19.144;2022-12-29T14:45:40;26.15;;;16.45;;
45618;SDS011;31343;47.520;19.144;2022-12-29T14:51:17;34.78;;;17.45;;
45618;SDS011;31343;47.520;19.144;2022-12-29T14:53:55;30.77;;;17.33;;
45618;SDS011;31343;47.520;19.144;2022-12-29T14:56:25;32.97;;;18.85;;
45618;SDS011;31343;47.520;19.144;2022-12-29T14:58:57;34.35;;;17.65;;
45618;SDS011;31343;47.520;19.144;2022-12-29T15:01:29;32.00;;;18.85;;
45618;SDS011;31343;47.520;19.144;2022-12-29T15:04:00;34.20;;;20.48;;
45618;SDS011;31343;47.520;19.144;2022-12-29T15:06:39;34.25;;;19.15;;
45618;SDS011;31343;47.520;19.144;2022-12-29T15:11:57;30.60;;;19.13;;
45618;SDS011;31343;47.520;19.144;2022-12-29T15:14:33;32.53;;;19.17;;
45618;SDS011;31343;47.520;19.144;2022-12-29T15:17:01;37.58;;;20.80;;
45618;SDS011;31343;47.520;19.144;2022-12-29T15:19:34;35.87;;;18.23;;
45618;SDS011;31343;47.520;19.144;2022-12-29T15:22:02;40.17;;;20.67;;
45618;SDS011;31343;47.520;19.144;2022-12-29T15:24:27;35.53;;;21.67;;
45618;SDS011;31343;47.520;19.144;2022-12-29T15:26:54;33.47;;;20.25;;
45618;SDS011;31343;47.520;19.144;2022-12-29T15:32:02;44.33;;;23.02;;
45618;SDS011;31343;47.520;19.144;2022-12-29T15:34:47;39.35;;;20.25;;
45618;SDS011;31343;47.520;19.144;2022-12-29T15:37:23;38.55;;;20.88;;
45618;SDS011;31343;47.520;19.144;2022-12-29T15:39:54;39.70;;;24.05;;
45618;SDS011;31343;47.520;19.144;2022-12-29T15:45:16;36.97;;;21.00;;
45618;SDS011;31343;47.520;19.144;2022-12-29T15:47:43;45.65;;;23.75;;
45618;SDS011;31343;47.520;19.144;2022-12-29T15:52:52;38.33;;;20.58;;
45618;SDS011;31343;47.520;19.144;2022-12-29T15:58:00;37.15;;;21.15;;
45618;SDS011;31343;47.520;19.144;2022-12-29T16:00:32;41.88;;;23.05;;
45618;SDS011;31343;47.520;19.144;2022-12-29T16:03:00;39.10;;;22.73;;
45618;SDS011;31343;47.520;19.144;2022-12-29T16:05:34;46.10;;;24.38;;
45618;SDS011;31343;47.520;19.144;2022-12-29T16:08:01;42.08;;;22.58;;
45618;SDS011;31343;47.520;19.144;2022-12-29T16:10:37;41.28;;;22.52;;
45618;SDS011;31343;47.520;19.144;2022-12-29T16:13:51;39.85;;;20.88;;
45618;SDS011;31343;47.520;19.144;2022-12-29T16:16:06;37.55;;;21.35;;
45618;SDS011;31343;47.520;19.144;2022-12-29T16:18:38;41.00;;;22.27;;
45618;SDS011;31343;47.520;19.144;2022-12-29T16:21:04;48.55;;;23.50;;
45618;SDS011;31343;47.520;19.144;2022-12-29T16:23:40;42.35;;;23.95;;
45618;SDS011;31343;47.520;19.144;2022-12-29T16:26:16;42.65;;;22.70;;
45618;SDS011;31343;47.520;19.144;2022-12-29T16:28:44;39.97;;;21.58;;
45618;SDS011;31343;47.520;19.144;2022-12-29T16:31:21;40.10;;;20.75;;
45618;SDS011;31343;47.520;19.144;2022-12-29T16:33:50;41.13;;;23.63;;
45618;SDS011;31343;47.520;19.144;2022-12-29T16:36:24;36.25;;;21.48;;
45618;SDS011;31343;47.520;19.144;2022-12-29T16:42:01;37.58;;;21.27;;
45618;SDS011;31343;47.520;19.144;2022-12-29T16:44:46;40.42;;;20.35;;
45618;SDS011;31343;47.520;19.144;2022-12-29T16:49:39;41.83;;;22.00;;
45618;SDS011;31343;47.520;19.144;2022-12-29T16:52:11;40.83;;;21.83;;
45618;SDS011;31343;47.520;19.144;2022-12-29T16:54:58;40.05;;;21.05;;
45618;SDS011;31343;47.520;19.144;2022-12-29T16:57:28;45.22;;;22.27;;
45618;SDS011;31343;47.520;19.144;2022-12-29T17:00:02;40.17;;;21.70;;
45618;SDS011;31343;47.520;19.144;2022-12-29T17:02:31;42.55;;;21.55;;
45618;SDS011;31343;47.520;19.144;2022-12-29T17:04:58;41.42;;;22.75;;